sensor_id;sensor_type;location;lat;lon;timestamp;pressure;altitude;pressure_sealevel;temperature;humidity
69574;BME280;62840;52.366;5.980;2022-12-18T00:00:47;102790.97;;;-1.85;73.06
69574;BME280;62840;52.366;5.980;2022-12-18T00:03:13;102779.66;;;-1.86;73.15
69574;BME280;62840;52.366;5.980;2022-12-18T00:05:46;102786.59;;;-1.86;73.01
69574;BME280;62840;52.366;5.980;2022-12-18T00:08:12;102794.47;;;-1.88;72.83
69574;BME280;62840;52.366;5.980;2022-12-18T00:10:38;102797.09;;;-1.88;73.02
69574;BME280;62840;52.366;5.980;2022-12-18T00:13:06;102792.72;;;-1.89;72.62
69574;BME280;62840;52.366;5.980;2022-12-18T00:15:33;102788.34;;;-1.93;72.84
69574;BME280;62840;52.366;5.980;2022-12-18T00:17:59;102780.50;;;-2.00;72.50
69574;BME280;62840;52.366;5.980;2022-12-18T00:20:24;102781.38;;;-2.03;72.97
69574;BME280;62840;52.366;5.980;2022-12-18T00:22:50;102772.66;;;-2.02;72.83
69574;BME280;62840;52.366;5.980;2022-12-18T00:25:16;102765.69;;;-2.03;72.92
69574;BME280;62840;52.366;5.980;2022-12-18T00:27:44;102767.41;;;-2.02;72.91
69574;BME280;62840;52.366;5.980;2022-12-18T00:30:13;102771.78;;;-2.02;72.87
69574;BME280;62840;52.366;5.980;2022-12-18T00:32:39;102772.66;;;-2.03;73.10
69574;BME280;62840;52.366;5.980;2022-12-18T00:35:05;102770.91;;;-2.06;72.76
69574;BME280;62840;52.366;5.980;2022-12-18T00:37:33;102781.38;;;-2.09;72.64
69574;BME280;62840;52.366;5.980;2022-12-18T00:39:59;102767.41;;;-2.14;72.63
69574;BME280;62840;52.366;5.980;2022-12-18T00:42:24;102769.16;;;-2.16;72.71
69574;BME280;62840;52.366;5.980;2022-12-18T00:44:50;102779.63;;;-2.16;72.85
69574;BME280;62840;52.366;5.980;2022-12-18T00:47:18;102786.56;;;-2.18;73.03
69574;BME280;62840;52.366;5.980;2022-12-18T00:49:44;102779.59;;;-2.19;73.09
69574;BME280;62840;52.366;5.980;2022-12-18T00:52:10;102772.63;;;-2.23;72.91
69574;BME280;62840;52.366;5.980;2022-12-18T00:54:36;102775.22;;;-2.27;72.80
69574;BME280;62840;52.366;5.980;2022-12-18T00:57:01;102781.34;;;-2.28;72.84
69574;BME280;62840;52.366;5.980;2022-12-18T00:59:27;102781.31;;;-2.31;72.55
69574;BME280;62840;52.366;5.980;2022-12-18T01:01:53;102769.13;;;-2.35;72.67
69574;BME280;62840;52.366;5.980;2022-12-18T01:04:21;102776.97;;;-2.36;72.83
69574;BME280;62840;52.366;5.980;2022-12-18T01:06:47;102795.25;;;-2.35;72.92
69574;BME280;62840;52.366;5.980;2022-12-18T01:09:13;102782.19;;;-2.35;72.83
69574;BME280;62840;52.366;5.980;2022-12-18T01:11:39;102785.69;;;-2.37;72.60
69574;BME280;62840;52.366;5.980;2022-12-18T01:14:05;102777.81;;;-2.43;72.68
69574;BME280;62840;52.366;5.980;2022-12-18T01:16:30;102781.25;;;-2.49;72.50
69574;BME280;62840;52.366;5.980;2022-12-18T01:18:56;102781.25;;;-2.54;72.48
69574;BME280;62840;52.366;5.980;2022-12-18T01:21:25;102783.00;;;-2.54;72.67
69574;BME280;62840;52.366;5.980;2022-12-18T01:23:51;102774.28;;;-2.56;72.51
69574;BME280;62840;52.366;5.980;2022-12-18T01:26:19;102769.06;;;-2.56;72.54
69574;BME280;62840;52.366;5.980;2022-12-18T01:28:46;102769.06;;;-2.59;72.59
69574;BME280;62840;52.366;5.980;2022-12-18T01:31:14;102770.78;;;-2.58;72.47
69574;BME280;62840;52.366;5.980;2022-12-18T01:33:42;102776.03;;;-2.61;72.46
69574;BME280;62840;52.366;5.980;2022-12-18T01:36:14;102781.22;;;-2.64;72.37
69574;BME280;62840;52.366;5.980;2022-12-18T01:38:44;102785.56;;;-2.68;72.42
69574;BME280;62840;52.366;5.980;2022-12-18T01:41:11;102785.56;;;-2.71;72.60
69574;BME280;62840;52.366;5.980;2022-12-18T01:43:42;102785.56;;;-2.73;72.24
69574;BME280;62840;52.366;5.980;2022-12-18T01:46:12;102770.72;;;-2.77;72.29
69574;BME280;62840;52.366;5.980;2022-12-18T01:48:38;102781.19;;;-2.80;72.37
69574;BME280;62840;52.366;5.980;2022-12-18T01:51:06;102782.00;;;-2.85;72.37
69574;BME280;62840;52.366;5.980;2022-12-18T01:53:36;102797.63;;;-2.92;72.29
69574;BME280;62840;52.366;5.980;2022-12-18T01:56:06;102803.72;;;-2.94;72.47
69574;BME280;62840;52.366;5.980;2022-12-18T01:58:39;102805.44;;;-2.96;72.55
69574;BME280;62840;52.366;5.980;2022-12-18T02:01:11;102802.81;;;-2.99;72.36
69574;BME280;62840;52.366;5.980;2022-12-18T02:03:41;102804.53;;;-3.04;72.48
69574;BME280;62840;52.366;5.980;2022-12-18T02:06:11;102797.56;;;-3.07;72.37
69574;BME280;62840;52.366;5.980;2022-12-18T02:08:48;102800.16;;;-3.08;72.35
69574;BME280;62840;52.366;5.980;2022-12-18T02:11:36;102794.06;;;-3.11;72.47
69574;BME280;62840;52.366;5.980;2022-12-18T02:14:17;102799.25;;;-3.15;72.33
69574;BME280;62840;52.366;5.980;2022-12-18T02:16:52;102794.88;;;-3.19;72.35
69574;BME280;62840;52.366;5.980;2022-12-18T02:19:45;102791.41;;;-3.20;72.34
69574;BME280;62840;52.366;5.980;2022-12-18T02:22:29;102800.06;;;-3.24;72.36
69574;BME280;62840;52.366;5.980;2022-12-18T02:25:13;102793.13;;;-3.25;72.30
69574;BME280;62840;52.366;5.980;2022-12-18T02:27:57;102791.34;;;-3.27;72.21
69574;BME280;62840;52.366;5.980;2022-12-18T02:30:30;102797.44;;;-3.32;72.25
69574;BME280;62840;52.366;5.980;2022-12-18T02:33:01;102807.84;;;-3.36;72.09
69574;BME280;62840;52.366;5.980;2022-12-18T02:35:30;102812.16;;;-3.38;72.26
69574;BME280;62840;52.366;5.980;2022-12-18T02:37:58;102812.13;;;-3.41;72.31
69574;BME280;62840;52.366;5.980;2022-12-18T02:40:26;102801.69;;;-3.44;72.20
69574;BME280;62840;52.366;5.980;2022-12-18T02:43:02;102799.03;;;-3.49;72.33
69574;BME280;62840;52.366;5.980;2022-12-18T02:45:31;102792.06;;;-3.50;72.19
69574;BME280;62840;52.366;5.980;2022-12-18T02:47:57;102792.03;;;-3.53;72.35
69574;BME280;62840;52.366;5.980;2022-12-18T02:50:35;102794.63;;;-3.55;72.28
69574;BME280;62840;52.366;5.980;2022-12-18T02:53:16;102775.53;;;-3.57;72.25
69574;BME280;62840;52.366;5.980;2022-12-18T02:55:59;102776.34;;;-3.61;72.16
69574;BME280;62840;52.366;5.980;2022-12-18T02:58:40;102778.91;;;-3.64;72.16
69574;BME280;62840;52.366;5.980;2022-12-18T03:01:16;102773.69;;;-3.70;72.13
69574;BME280;62840;52.366;5.980;2022-12-18T03:03:50;102763.22;;;-3.75;72.19
69574;BME280;62840;52.366;5.980;2022-12-18T03:06:23;102762.31;;;-3.77;72.19
69574;BME280;62840;52.366;5.980;2022-12-18T03:08:57;102763.13;;;-3.82;72.08
69574;BME280;62840;52.366;5.980;2022-12-18T03:11:30;102764.84;;;-3.84;72.00
69574;BME280;62840;52.366;5.980;2022-12-18T03:14:03;102768.28;;;-3.88;71.86
69574;BME280;62840;52.366;5.980;2022-12-18T03:16:34;102769.16;;;-3.89;72.16
69574;BME280;62840;52.366;5.980;2022-12-18T03:19:03;102767.44;;;-3.89;72.03
69574;BME280;62840;52.366;5.980;2022-12-18T03:21:38;102770.88;;;-3.91;71.85
69574;BME280;62840;52.366;5.980;2022-12-18T03:24:09;102765.66;;;-3.93;71.81
69574;BME280;62840;52.366;5.980;2022-12-18T03:26:43;102757.78;;;-4.01;71.88
69574;BME280;62840;52.366;5.980;2022-12-18T03:29:18;102768.22;;;-3.98;71.73
69574;BME280;62840;52.366;5.980;2022-12-18T03:31:51;102773.41;;;-4.01;71.74
69574;BME280;62840;52.366;5.980;2022-12-18T03:34:24;102762.06;;;-4.07;71.76
69574;BME280;62840;52.366;5.980;2022-12-18T03:36:56;102759.41;;;-4.12;71.81
69574;BME280;62840;52.366;5.980;2022-12-18T03:39:23;102755.91;;;-4.14;71.68
69574;BME280;62840;52.366;5.980;2022-12-18T03:41:54;102754.13;;;-4.21;71.68
69574;BME280;62840;52.366;5.980;2022-12-18T03:44:31;102750.63;;;-4.23;71.63
69574;BME280;62840;52.366;5.980;2022-12-18T03:47:06;102751.41;;;-4.29;71.62
69574;BME280;62840;52.366;5.980;2022-12-18T03:49:41;102757.47;;;-4.31;71.75
69574;BME280;62840;52.366;5.980;2022-12-18T03:52:18;102751.38;;;-4.35;71.64
69574;BME280;62840;52.366;5.980;2022-12-18T03:54:51;102746.13;;;-4.40;71.34
69574;BME280;62840;52.366;5.980;2022-12-18T03:57:23;102741.75;;;-4.44;71.43
69574;BME280;62840;52.366;5.980;2022-12-18T03:59:56;102744.28;;;-4.48;71.56
69574;BME280;62840;52.366;5.980;2022-12-18T04:02:25;102741.66;;;-4.50;71.58
69574;BME280;62840;52.366;5.980;2022-12-18T04:04:53;102732.97;;;-4.52;71.47
69574;BME280;62840;52.366;5.980;2022-12-18T04:07:24;102733.81;;;-4.54;71.30
69574;BME280;62840;52.366;5.980;2022-12-18T04:09:52;102729.44;;;-4.57;71.28
69574;BME280;62840;52.366;5.980;2022-12-18T04:12:23;102731.16;;;-4.59;71.17
69574;BME280;62840;52.366;5.980;2022-12-18T04:14:50;102742.41;;;-4.62;71.48
69574;BME280;62840;52.366;5.980;2022-12-18T04:17:18;102732.81;;;-4.66;71.47
69574;BME280;62840;52.366;5.980;2022-12-18T04:19:44;102736.25;;;-4.68;71.41
69574;BME280;62840;52.366;5.980;2022-12-18T04:22:10;102737.97;;;-4.70;71.44
69574;BME280;62840;52.366;5.980;2022-12-18T04:24:36;102737.06;;;-4.74;71.42
69574;BME280;62840;52.366;5.980;2022-12-18T04:27:02;102733.56;;;-4.76;71.42
69574;BME280;62840;52.366;5.980;2022-12-18T04:29:28;102737.88;;;-4.80;71.46
69574;BME280;62840;52.366;5.980;2022-12-18T04:31:54;102741.31;;;-4.81;71.42
69574;BME280;62840;52.366;5.980;2022-12-18T04:34:22;102737.84;;;-4.83;71.27
69574;BME280;62840;52.366;5.980;2022-12-18T04:36:48;102734.34;;;-4.85;71.52
69574;BME280;62840;52.366;5.980;2022-12-18T04:39:14;102733.47;;;-4.87;71.22
69574;BME280;62840;52.366;5.980;2022-12-18T04:41:40;102735.16;;;-4.89;71.13
69574;BME280;62840;52.366;5.980;2022-12-18T04:44:06;102738.59;;;-4.91;71.38
69574;BME280;62840;52.366;5.980;2022-12-18T04:46:32;102727.28;;;-4.95;71.35
69574;BME280;62840;52.366;5.980;2022-12-18T04:48:58;102743.72;;;-4.98;71.51
69574;BME280;62840;52.366;5.980;2022-12-18T04:51:26;102738.50;;;-4.99;71.23
69574;BME280;62840;52.366;5.980;2022-12-18T04:53:52;102746.31;;;-4.99;71.34
69574;BME280;62840;52.366;5.980;2022-12-18T04:56:18;102741.06;;;-5.02;71.20
69574;BME280;62840;52.366;5.980;2022-12-18T04:58:44;102735.84;;;-5.05;71.47
69574;BME280;62840;52.366;5.980;2022-12-18T05:01:11;102750.59;;;-5.04;71.29
69574;BME280;62840;52.366;5.980;2022-12-18T05:03:39;102748.81;;;-5.07;71.19
69574;BME280;62840;52.366;5.980;2022-12-18T05:06:06;102744.44;;;-5.09;71.21
69574;BME280;62840;52.366;5.980;2022-12-18T05:08:35;102742.69;;;-5.10;71.34
69574;BME280;62840;52.366;5.980;2022-12-18T05:11:03;102752.19;;;-5.14;71.13
69574;BME280;62840;52.366;5.980;2022-12-18T05:13:31;102756.47;;;-5.18;71.19
69574;BME280;62840;52.366;5.980;2022-12-18T05:15:57;102758.19;;;-5.20;71.33
69574;BME280;62840;52.366;5.980;2022-12-18T05:18:24;102751.25;;;-5.21;71.17
69574;BME280;62840;52.366;5.980;2022-12-18T05:20:51;102755.53;;;-5.21;71.28
69574;BME280;62840;52.366;5.980;2022-12-18T05:23:18;102765.06;;;-5.22;71.43
69574;BME280;62840;52.366;5.980;2022-12-18T05:25:50;102770.28;;;-5.22;71.65
69574;BME280;62840;52.366;5.980;2022-12-18T05:28:17;102773.75;;;-5.23;71.28
69574;BME280;62840;52.366;5.980;2022-12-18T05:30:43;102773.69;;;-5.26;71.29
69574;BME280;62840;52.366;5.980;2022-12-18T05:33:12;102776.25;;;-5.29;71.36
69574;BME280;62840;52.366;5.980;2022-12-18T05:35:38;102766.72;;;-5.30;71.42
69574;BME280;62840;52.366;5.980;2022-12-18T05:38:03;102778.81;;;-5.32;71.37
69574;BME280;62840;52.366;5.980;2022-12-18T05:40:29;102776.19;;;-5.33;71.12
69574;BME280;62840;52.366;5.980;2022-12-18T05:42:58;102780.53;;;-5.34;71.22
69574;BME280;62840;52.366;5.980;2022-12-18T05:45:23;102781.31;;;-5.38;71.40
69574;BME280;62840;52.366;5.980;2022-12-18T05:47:49;102782.16;;;-5.39;71.29
69574;BME280;62840;52.366;5.980;2022-12-18T05:50:15;102785.63;;;-5.40;71.33
69574;BME280;62840;52.366;5.980;2022-12-18T05:52:41;102787.34;;;-5.39;71.26
69574;BME280;62840;52.366;5.980;2022-12-18T05:55:07;102781.25;;;-5.43;71.30
69574;BME280;62840;52.366;5.980;2022-12-18T05:57:33;102787.31;;;-5.42;71.36
69574;BME280;62840;52.366;5.980;2022-12-18T06:00:02;102780.38;;;-5.43;71.22
69574;BME280;62840;52.366;5.980;2022-12-18T06:02:28;102776.88;;;-5.45;71.19
69574;BME280;62840;52.366;5.980;2022-12-18T06:04:54;102776.03;;;-5.46;71.05
69574;BME280;62840;52.366;5.980;2022-12-18T06:07:20;102767.31;;;-5.48;71.21
69574;BME280;62840;52.366;5.980;2022-12-18T06:09:46;102761.19;;;-5.51;70.97
69574;BME280;62840;52.366;5.980;2022-12-18T06:12:11;102765.53;;;-5.52;71.12
69574;BME280;62840;52.366;5.980;2022-12-18T06:14:37;102762.88;;;-5.53;71.23
69574;BME280;62840;52.366;5.980;2022-12-18T06:17:06;102754.16;;;-5.58;71.16
69574;BME280;62840;52.366;5.980;2022-12-18T06:19:31;102752.38;;;-5.60;71.25
69574;BME280;62840;52.366;5.980;2022-12-18T06:21:57;102759.28;;;-5.62;70.91
69574;BME280;62840;52.366;5.980;2022-12-18T06:24:23;102761.03;;;-5.64;71.03
69574;BME280;62840;52.366;5.980;2022-12-18T06:26:48;102751.44;;;-5.66;71.03
69574;BME280;62840;52.366;5.980;2022-12-18T06:29:14;102746.22;;;-5.68;71.22
69574;BME280;62840;52.366;5.980;2022-12-18T06:31:40;102754.88;;;-5.67;71.12
69574;BME280;62840;52.366;5.980;2022-12-18T06:34:08;102741.84;;;-5.69;71.13
69574;BME280;62840;52.366;5.980;2022-12-18T06:36:34;102742.69;;;-5.71;71.06
69574;BME280;62840;52.366;5.980;2022-12-18T06:39:00;102740.94;;;-5.74;70.82
69574;BME280;62840;52.366;5.980;2022-12-18T06:41:25;102739.19;;;-5.75;71.09
69574;BME280;62840;52.366;5.980;2022-12-18T06:43:51;102733.09;;;-5.77;71.09
69574;BME280;62840;52.366;5.980;2022-12-18T06:46:17;102727.91;;;-5.77;71.00
69574;BME280;62840;52.366;5.980;2022-12-18T06:48:46;102720.94;;;-5.78;71.17
69574;BME280;62840;52.366;5.980;2022-12-18T06:51:18;102713.94;;;-5.82;71.22
69574;BME280;62840;52.366;5.980;2022-12-18T06:53:45;102719.19;;;-5.79;70.98
69574;BME280;62840;52.366;5.980;2022-12-18T06:56:11;102717.50;;;-5.77;71.02
69574;BME280;62840;52.366;5.980;2022-12-18T06:58:38;102707.09;;;-5.75;71.17
69574;BME280;62840;52.366;5.980;2022-12-18T07:01:05;102710.59;;;-5.75;71.15
69574;BME280;62840;52.366;5.980;2022-12-18T07:03:33;102707.09;;;-5.77;71.16
69574;BME280;62840;52.366;5.980;2022-12-18T07:05:59;102711.47;;;-5.74;71.27
69574;BME280;62840;52.366;5.980;2022-12-18T07:08:29;102708.84;;;-5.76;71.30
69574;BME280;62840;52.366;5.980;2022-12-18T07:10:55;102709.72;;;-5.75;71.36
69574;BME280;62840;52.366;5.980;2022-12-18T07:13:21;102710.59;;;-5.75;71.40
69574;BME280;62840;52.366;5.980;2022-12-18T07:15:47;102711.44;;;-5.76;71.18
69574;BME280;62840;52.366;5.980;2022-12-18T07:18:13;102715.81;;;-5.75;71.30
69574;BME280;62840;52.366;5.980;2022-12-18T07:20:39;102715.81;;;-5.75;71.28
69574;BME280;62840;52.366;5.980;2022-12-18T07:23:05;102705.41;;;-5.73;71.37
69574;BME280;62840;52.366;5.980;2022-12-18T07:25:36;102711.47;;;-5.73;71.36
69574;BME280;62840;52.366;5.980;2022-12-18T07:28:02;102707.13;;;-5.74;71.37
69574;BME280;62840;52.366;5.980;2022-12-18T07:30:28;102698.47;;;-5.73;71.55
69574;BME280;62840;52.366;5.980;2022-12-18T07:32:54;102705.44;;;-5.72;71.47
69574;BME280;62840;52.366;5.980;2022-12-18T07:35:20;102700.28;;;-5.69;71.49
69574;BME280;62840;52.366;5.980;2022-12-18T07:37:45;102714.16;;;-5.67;71.38
69574;BME280;62840;52.366;5.980;2022-12-18T07:40:12;102719.44;;;-5.64;71.73
69574;BME280;62840;52.366;5.980;2022-12-18T07:42:40;102720.31;;;-5.62;71.63
69574;BME280;62840;52.366;5.980;2022-12-18T07:45:07;102717.69;;;-5.62;71.76
69574;BME280;62840;52.366;5.980;2022-12-18T07:47:34;102721.19;;;-5.60;71.79
69574;BME280;62840;52.366;5.980;2022-12-18T07:50:00;102705.59;;;-5.60;71.59
69574;BME280;62840;52.366;5.980;2022-12-18T07:52:26;102711.72;;;-5.57;71.87
69574;BME280;62840;52.366;5.980;2022-12-18T07:54:52;102705.69;;;-5.56;71.58
69574;BME280;62840;52.366;5.980;2022-12-18T07:57:18;102696.19;;;-5.54;71.71
69574;BME280;62840;52.366;5.980;2022-12-18T07:59:46;102694.47;;;-5.51;71.50
69574;BME280;62840;52.366;5.980;2022-12-18T08:02:12;102684.94;;;-5.50;71.68
69574;BME280;62840;52.366;5.980;2022-12-18T08:04:37;102689.34;;;-5.48;71.67
69574;BME280;62840;52.366;5.980;2022-12-18T08:07:03;102674.59;;;-5.47;71.69
69574;BME280;62840;52.366;5.980;2022-12-18T08:09:29;102683.31;;;-5.42;71.68
69574;BME280;62840;52.366;5.980;2022-12-18T08:11:54;102672.09;;;-5.40;71.71
69574;BME280;62840;52.366;5.980;2022-12-18T08:14:20;102667.75;;;-5.39;71.63
69574;BME280;62840;52.366;5.980;2022-12-18T08:16:48;102666.94;;;-5.36;71.76
69574;BME280;62840;52.366;5.980;2022-12-18T08:19:14;102660.03;;;-5.34;71.68
69574;BME280;62840;52.366;5.980;2022-12-18T08:21:40;102659.22;;;-5.32;71.68
69574;BME280;62840;52.366;5.980;2022-12-18T08:24:09;102664.44;;;-5.29;71.87
69574;BME280;62840;52.366;5.980;2022-12-18T08:26:35;102665.34;;;-5.27;71.86
69574;BME280;62840;52.366;5.980;2022-12-18T08:29:01;102667.97;;;-5.24;71.99
69574;BME280;62840;52.366;5.980;2022-12-18T08:31:28;102659.34;;;-5.20;71.81
69574;BME280;62840;52.366;5.980;2022-12-18T08:33:57;102659.41;;;-5.16;72.21
69574;BME280;62840;52.366;5.980;2022-12-18T08:36:24;102659.44;;;-5.13;72.01
69574;BME280;62840;52.366;5.980;2022-12-18T08:38:50;102645.56;;;-5.12;72.01
69574;BME280;62840;52.366;5.980;2022-12-18T08:41:17;102647.34;;;-5.08;72.12
69574;BME280;62840;52.366;5.980;2022-12-18T08:43:44;102643.91;;;-5.04;72.04
69574;BME280;62840;52.366;5.980;2022-12-18T08:46:11;102650.00;;;-5.02;72.29
69574;BME280;62840;52.366;5.980;2022-12-18T08:48:37;102649.19;;;-4.98;72.14
69574;BME280;62840;52.366;5.980;2022-12-18T08:51:05;102658.78;;;-4.92;72.29
69574;BME280;62840;52.366;5.980;2022-12-18T08:53:31;102662.31;;;-4.89;72.42
69574;BME280;62840;52.366;5.980;2022-12-18T08:55:57;102664.09;;;-4.85;72.26
69574;BME280;62840;52.366;5.980;2022-12-18T08:58:23;102657.19;;;-4.83;72.12
69574;BME280;62840;52.366;5.980;2022-12-18T09:00:48;102661.53;;;-4.79;72.32
69574;BME280;62840;52.366;5.980;2022-12-18T09:03:15;102665.06;;;-4.73;72.25
69574;BME280;62840;52.366;5.980;2022-12-18T09:05:43;102662.47;;;-4.72;72.28
69574;BME280;62840;52.366;5.980;2022-12-18T09:08:13;102654.69;;;-4.67;72.27
69574;BME280;62840;52.366;5.980;2022-12-18T09:10:41;102649.53;;;-4.64;72.41
69574;BME280;62840;52.366;5.980;2022-12-18T09:13:09;102658.25;;;-4.59;72.49
69574;BME280;62840;52.366;5.980;2022-12-18T09:15:40;102658.31;;;-4.53;72.27
69574;BME280;62840;52.366;5.980;2022-12-18T09:18:06;102658.38;;;-4.48;72.33
69574;BME280;62840;52.366;5.980;2022-12-18T09:20:32;102659.25;;;-4.45;72.72
69574;BME280;62840;52.366;5.980;2022-12-18T09:22:57;102653.25;;;-4.38;72.44
69574;BME280;62840;52.366;5.980;2022-12-18T09:25:26;102648.97;;;-4.31;72.84
69574;BME280;62840;52.366;5.980;2022-12-18T09:27:51;102661.19;;;-4.24;72.55
69574;BME280;62840;52.366;5.980;2022-12-18T09:30:17;102655.16;;;-4.20;72.60
69574;BME280;62840;52.366;5.980;2022-12-18T09:32:43;102667.34;;;-4.14;72.71
69574;BME280;62840;52.366;5.980;2022-12-18T09:35:09;102671.75;;;-4.08;72.75
69574;BME280;62840;52.366;5.980;2022-12-18T09:37:34;102670.00;;;-4.05;72.87
69574;BME280;62840;52.366;5.980;2022-12-18T09:40:00;102660.47;;;-4.00;72.89
69574;BME280;62840;52.366;5.980;2022-12-18T09:42:28;102674.44;;;-3.95;72.77
69574;BME280;62840;52.366;5.980;2022-12-18T09:44:55;102672.72;;;-3.89;72.81
69574;BME280;62840;52.366;5.980;2022-12-18T09:47:23;102657.13;;;-3.85;72.93
69574;BME280;62840;52.366;5.980;2022-12-18T09:49:58;102655.41;;;-3.81;72.88
69574;BME280;62840;52.366;5.980;2022-12-18T09:52:29;102649.34;;;-3.77;73.01
69574;BME280;62840;52.366;5.980;2022-12-18T09:55:03;102645.03;;;-3.72;72.84
69574;BME280;62840;52.366;5.980;2022-12-18T09:57:44;102631.13;;;-3.68;72.64
69574;BME280;62840;52.366;5.980;2022-12-18T10:00:17;102624.22;;;-3.63;72.90
69574;BME280;62840;52.366;5.980;2022-12-18T10:02:46;102613.81;;;-3.60;73.06
69574;BME280;62840;52.366;5.980;2022-12-18T10:05:14;102620.78;;;-3.53;72.96
69574;BME280;62840;52.366;5.980;2022-12-18T10:07:55;102605.19;;;-3.46;73.04
69574;BME280;62840;52.366;5.980;2022-12-18T10:10:35;102604.34;;;-3.38;73.00
69574;BME280;62840;52.366;5.980;2022-12-18T10:13:18;102593.94;;;-3.33;73.22
69574;BME280;62840;52.366;5.980;2022-12-18T10:15:57;102589.59;;;-3.28;72.75
69574;BME280;62840;52.366;5.980;2022-12-18T10:18:45;102579.19;;;-3.22;73.19
69574;BME280;62840;52.366;5.980;2022-12-18T10:21:42;102574.84;;;-3.15;73.06
69574;BME280;62840;52.366;5.980;2022-12-18T10:24:22;102568.75;;;-3.10;73.16
69574;BME280;62840;52.366;5.980;2022-12-18T10:26:53;102561.81;;;-3.04;73.14
69574;BME280;62840;52.366;5.980;2022-12-18T10:29:27;102561.84;;;-3.00;73.02
69574;BME280;62840;52.366;5.980;2022-12-18T10:31:53;102579.22;;;-2.94;72.97
69574;BME280;62840;52.366;5.980;2022-12-18T10:34:19;102584.47;;;-2.88;72.96
69574;BME280;62840;52.366;5.980;2022-12-18T10:36:46;102572.28;;;-2.83;72.74
69574;BME280;62840;52.366;5.980;2022-12-18T10:39:17;102565.34;;;-2.78;72.65
69574;BME280;62840;52.366;5.980;2022-12-18T10:41:45;102568.81;;;-2.73;72.77
69574;BME280;62840;52.366;5.980;2022-12-18T10:44:14;102567.06;;;-2.68;72.71
69574;BME280;62840;52.366;5.980;2022-12-18T10:46:45;102554.88;;;-2.62;72.54
69574;BME280;62840;52.366;5.980;2022-12-18T10:49:22;102540.09;;;-2.57;72.65
69574;BME280;62840;52.366;5.980;2022-12-18T10:51:51;102537.47;;;-2.54;72.67
69574;BME280;62840;52.366;5.980;2022-12-18T10:54:30;102532.22;;;-2.51;72.43
69574;BME280;62840;52.366;5.980;2022-12-18T10:57:16;102537.47;;;-2.45;72.60
69574;BME280;62840;52.366;5.980;2022-12-18T10:59:56;102540.94;;;-2.40;72.56
69574;BME280;62840;52.366;5.980;2022-12-18T11:02:34;102542.66;;;-2.36;72.53
69574;BME280;62840;52.366;5.980;2022-12-18T11:05:04;102542.69;;;-2.33;72.76
69574;BME280;62840;52.366;5.980;2022-12-18T11:07:50;102542.66;;;-2.27;72.68
69574;BME280;62840;52.366;5.980;2022-12-18T11:10:17;102547.88;;;-2.23;72.66
69574;BME280;62840;52.366;5.980;2022-12-18T11:12:44;102546.13;;;-2.18;72.72
69574;BME280;62840;52.366;5.980;2022-12-18T11:15:15;102547.88;;;-2.14;72.79
69574;BME280;62840;52.366;5.980;2022-12-18T11:17:47;102558.28;;;-2.08;72.44
69574;BME280;62840;52.366;5.980;2022-12-18T11:20:26;102546.09;;;-2.03;72.40
69574;BME280;62840;52.366;5.980;2022-12-18T11:22:57;102540.84;;;-2.00;72.42
69574;BME280;62840;52.366;5.980;2022-12-18T11:25:25;102539.09;;;-1.95;72.47
69574;BME280;62840;52.366;5.980;2022-12-18T11:27:53;102531.25;;;-1.92;72.57
69574;BME280;62840;52.366;5.980;2022-12-18T11:30:22;102515.53;;;-1.89;72.43
69574;BME280;62840;52.366;5.980;2022-12-18T11:32:55;102490.25;;;-1.87;72.20
69574;BME280;62840;52.366;5.980;2022-12-18T11:35:34;102489.38;;;-1.82;72.49
69574;BME280;62840;52.366;5.980;2022-12-18T11:38:17;102485.00;;;-1.80;72.64
69574;BME280;62840;52.366;5.980;2022-12-18T11:40:51;102487.59;;;-1.76;72.62
69574;BME280;62840;52.366;5.980;2022-12-18T11:43:27;102490.19;;;-1.71;72.64
69574;BME280;62840;52.366;5.980;2022-12-18T11:46:02;102497.16;;;-1.67;72.52
69574;BME280;62840;52.366;5.980;2022-12-18T11:48:38;102489.31;;;-1.67;72.58
69574;BME280;62840;52.366;5.980;2022-12-18T11:51:25;102489.28;;;-1.63;72.39
69574;BME280;62840;52.366;5.980;2022-12-18T11:53:57;102491.88;;;-1.59;72.45
69574;BME280;62840;52.366;5.980;2022-12-18T11:56:30;102485.75;;;-1.55;72.20
69574;BME280;62840;52.366;5.980;2022-12-18T11:59:07;102474.34;;;-1.50;72.15
69574;BME280;62840;52.366;5.980;2022-12-18T12:01:51;102475.22;;;-1.45;72.03
69574;BME280;62840;52.366;5.980;2022-12-18T12:04:59;102474.34;;;-1.40;71.89
69574;BME280;62840;52.366;5.980;2022-12-18T12:07:42;102463.84;;;-1.37;71.69
69574;BME280;62840;52.366;5.980;2022-12-18T12:10:28;102439.38;;;-1.33;71.86
69574;BME280;62840;52.366;5.980;2022-12-18T12:13:17;102436.72;;;-1.30;72.31
69574;BME280;62840;52.366;5.980;2022-12-18T12:16:02;102424.50;;;-1.28;71.82
69574;BME280;62840;52.366;5.980;2022-12-18T12:18:48;102429.69;;;-1.24;71.74
69574;BME280;62840;52.366;5.980;2022-12-18T12:21:28;102425.31;;;-1.20;71.75
69574;BME280;62840;52.366;5.980;2022-12-18T12:24:16;102428.75;;;-1.15;71.70
69574;BME280;62840;52.366;5.980;2022-12-18T12:27:07;102423.50;;;-1.12;71.18
69574;BME280;62840;52.366;5.980;2022-12-18T12:29:50;102421.72;;;-1.10;71.22
69574;BME280;62840;52.366;5.980;2022-12-18T12:32:38;102423.44;;;-1.07;71.36
69574;BME280;62840;52.366;5.980;2022-12-18T12:35:24;102424.31;;;-1.05;71.02
69574;BME280;62840;52.366;5.980;2022-12-18T12:38:06;102419.06;;;-1.05;71.06
69574;BME280;62840;52.366;5.980;2022-12-18T12:40:43;102412.94;;;-1.03;70.80
69574;BME280;62840;52.366;5.980;2022-12-18T12:43:22;102412.94;;;-0.99;71.15
69574;BME280;62840;52.366;5.980;2022-12-18T12:46:00;102410.28;;;-0.96;70.79
69574;BME280;62840;52.366;5.980;2022-12-18T12:48:36;102406.75;;;-0.94;70.61
69574;BME280;62840;52.366;5.980;2022-12-18T12:51:12;102405.84;;;-0.91;70.74
69574;BME280;62840;52.366;5.980;2022-12-18T12:53:45;102391.88;;;-0.90;70.48
69574;BME280;62840;52.366;5.980;2022-12-18T12:56:14;102393.59;;;-0.86;70.52
69574;BME280;62840;52.366;5.980;2022-12-18T12:58:49;102390.09;;;-0.85;70.70
69574;BME280;62840;52.366;5.980;2022-12-18T13:01:28;102381.31;;;-0.81;70.37
69574;BME280;62840;52.366;5.980;2022-12-18T13:04:06;102386.50;;;-0.78;70.34
69574;BME280;62840;52.366;5.980;2022-12-18T13:06:45;102384.75;;;-0.74;70.35